Okolona, Arkansas
Current Conditions -  °F | °C
As of 2:56 PM on Friday 28 Nov 2014 (Local Time) from KADF Reporting Station
Clear Clear  
Wind Chill: 62°   Ceiling: Unl
Heat Index: 62°   Visibility: 10mi
Dew Point: 39°   Wind: 13mph
Humidity: 43%   Direction: 210°SSW
Pressure: 30.14"   Gusts: NA
Location:  34°N, 93.34°W
Report Text: KADF 282056Z AUTO 21011KT 10SM CLR 17/04 A3014 RMK AO2 56043 T01660038 SLP221
Loading
Personal Weather Stations






























Interactive Weather Map New forecast layout! Learn more

10-Day Weather Forecast

Advertisements
Track Severe Weather on mobile